Axtel, KY

12:55 AM CST on February 28, 2015 (GMT -0600)
Eveleigh Road | Change Station
CLOSE
Current Station
Personal Weather Station
Location: Leitchfield, KY
Elevation: 670 ft
Nearby Weather Stations

Elev 670 ft 37.58 °N, 86.34 °W | Updated 27 seconds ago

Mostly Cloudy
Mostly Cloudy
20.8 °F
Feels Like 15 °F
N
3.8
Wind Variable Wind from North
Gusts 3.8 mph

Today
High -- | Low -- °F
--% Chance of Precip.
Yesterday
High -- | Low -- °F
Precip. -- in
6:19 AM 5:38 PM
Waxing Gibbous, 75% visible
Pressure 30.65 in
Visibility 10.0 miles
Clouds Overcast 8500 ft
Windchill 15 °F
Dew Point 9 °F
Humidity 60%
Rainfall 0.00 in
Snow Depth Not available.
UV 0 out of 12
Pollen .90 out of 12
Air Quality Not available.
Flu Activity Not available.
METAR KFTK 280558Z AUTO 05006KT 10SM OVC085 M07/M15 A3060 RMK AO2 SLP377 T10671155 11056 21067 58005

More Conditions Fewer Conditions

Pressure 30.65 in
Visibility 10.0 miles
Clouds Overcast 8500 ft
Windchill 15 °F
Dew Point 9 °F
Humidity 60%
Rainfall 0.00 in
Snow Depth Not available.
UV 0 out of 12
Pollen .90 out of 12
Air Quality Not available.
Flu Activity Not available.
METAR KFTK 280558Z AUTO 05006KT 10SM OVC085 M07/M15 A3060 RMK AO2 SLP377 T10671155 11056 21067 58005

More Conditions Fewer Conditions

10-Day Weather Forecast

Almanac

Astronomy

Feb. 28, 2015 Rise Set
Actual Time
Civil Twilight
Nautical Twilight
Astronomical Twilight
Moon
Length of Visible Light
Length of Day
Tomorrow will be .
, % of the Moon is Illuminated

Today's Extremes

State Highs State Lows

Community

WunderPhotos

Upload Photos

1,800,978 photos uploaded!

WunderBlogs® & News

Nearby

Air Quality

  Air Quality AQ Index Pollutant
Not available.

Snow Depth

Station Depth Elevation

Earthquake Activity

City Distance Mag. Time & Date
Minimum magnitude displayed is 2.5.

Coastal Water Temperatures

Place Temperature

Nearby Weather Stations